KDUA

Details ICAO KDUA
Name EAKER FLD
Region United States
Timezone America/Chicago (UTC-6.0)
Plans Departing 5
Arriving 3
Stats Elevation 698 ft / 213 m (AMSL)
Location 33.942174° -96.395040°
Runways 1
Magnetic Variation 3.029° E
Sunrise 2017-12-17 13:26:16 UTC / 2017-12-17 07:26:16 Local
Sunset 2017-12-17 23:20:07 UTC / 2017-12-17 17:20:07 Local
Advertisement - Login to hide

Runways

ID Width Length Bearing (true) Bearing (mag) Surface Threshold Offset Overrun Length
17 100 ft / 30 m 5,014 ft / 1,528 m 180.34° 177.31° Asphalt 0 ft / 0 m 0 ft / 0 m
35 100 ft / 30 m 5,014 ft / 1,528 m 0.34° 357.31° Asphalt 0 ft / 0 m 0 ft / 0 m

Map

Weather


0- 5 10 15 20 25 30 35+ Temperature / ° C

Clouds and Precipitation
Forecast for 2017-12-18 00:00 UTC. Updated 28 minutes ago

Ground ~20,000 ft ~40,000 ft Winds

METAR

KDUA 171935Z AUTO 18006KT 10SM OVC008 08/08 A3005 RMK AO2

TAF

Not found

Frequencies

Recorded 124.17 MHz AWOS 3
Unicom 122.80 MHz CTAF/UNICOM
Warning: Do not use this data for real-world aviation or navigation. No guarantee of current accuracy is given.